createdAt,value
2022-10-23T00:00:31.725Z,15.85
2022-10-23T00:05:33.786Z,9.50
2022-10-23T00:10:35.580Z,14.93
2022-10-23T00:15:37.325Z,15.10
2022-10-23T00:20:38.774Z,17.40
2022-10-23T00:25:40.198Z,14.32
2022-10-23T00:30:41.892Z,15.18
2022-10-23T00:35:43.873Z,16.83
2022-10-23T00:40:47.065Z,20.48
2022-10-23T00:45:48.658Z,20.23
2022-10-23T00:50:50.476Z,15.25
2022-10-23T00:55:54.806Z,15.43
2022-10-23T01:00:57.149Z,13.98
2022-10-23T01:06:23.192Z,11.48
2022-10-23T01:11:38.930Z,17.00
2022-10-23T01:17:00.281Z,19.98
2022-10-23T01:22:04.511Z,19.40
2022-10-23T01:27:27.937Z,20.60
2022-10-23T01:32:44.068Z,22.30
2022-10-23T01:37:51.160Z,17.08
2022-10-23T01:42:58.170Z,18.73
2022-10-23T01:48:02.618Z,14.95
2022-10-23T01:58:08.468Z,17.95
2022-10-23T02:03:13.148Z,19.67
2022-10-23T02:08:14.921Z,13.63
2022-10-23T02:13:29.165Z,17.77
2022-10-23T02:18:44.190Z,15.75
2022-10-23T02:24:01.143Z,17.63
2022-10-23T02:29:38.900Z,17.88
2022-10-23T02:34:40.738Z,22.15
2022-10-23T02:39:42.274Z,31.55
2022-10-23T02:44:56.221Z,19.90
2022-10-23T02:50:23.761Z,26.73
2022-10-23T02:56:00.760Z,19.83
2022-10-23T03:01:19.960Z,23.05
2022-10-23T03:06:22.783Z,21.63
2022-10-23T03:11:24.262Z,22.65
2022-10-23T03:16:25.772Z,25.42
2022-10-23T03:21:27.330Z,22.38
2022-10-23T03:26:29.012Z,20.73
2022-10-23T03:31:30.430Z,15.75
2022-10-23T03:36:31.963Z,22.23
2022-10-23T03:41:33.441Z,23.02
2022-10-23T03:46:34.853Z,20.70
2022-10-23T03:51:36.515Z,20.73
2022-10-23T03:56:37.950Z,23.80
2022-10-23T04:01:39.475Z,24.08
2022-10-23T04:06:41.233Z,21.38
2022-10-23T04:11:42.901Z,29.70
2022-10-23T04:16:44.356Z,21.63
2022-10-23T04:21:45.995Z,20.17
2022-10-23T04:26:47.533Z,32.60
2022-10-23T04:31:49.274Z,22.77
2022-10-23T04:36:50.973Z,20.98
2022-10-23T04:41:53.036Z,22.35
2022-10-23T04:46:54.517Z,18.83
2022-10-23T04:51:55.981Z,17.33
2022-10-23T04:56:57.513Z,18.20
2022-10-23T05:02:02.841Z,13.77
2022-10-23T05:07:04.481Z,15.32
2022-10-23T05:12:06.005Z,55.25
2022-10-23T05:17:12.984Z,13.27
2022-10-23T05:22:15.381Z,12.70
2022-10-23T05:27:16.968Z,16.48
2022-10-23T05:32:18.618Z,11.48
2022-10-23T05:37:20.220Z,10.80
2022-10-23T05:42:21.645Z,11.48
2022-10-23T05:47:23.072Z,10.85
2022-10-23T05:52:24.634Z,11.45
2022-10-23T05:57:26.213Z,11.52
2022-10-23T06:02:27.929Z,15.10
2022-10-23T06:07:35.714Z,13.70
2022-10-23T06:12:37.539Z,22.55
2022-10-23T06:17:38.983Z,47.00
2022-10-23T06:22:40.670Z,31.77
2022-10-23T06:27:42.578Z,38.60
2022-10-23T06:32:44.411Z,28.65
2022-10-23T06:37:46.041Z,36.15
2022-10-23T06:42:47.504Z,39.22
2022-10-23T06:47:52.270Z,12.07
2022-10-23T06:52:54.240Z,24.95
2022-10-23T06:57:58.919Z,52.72
2022-10-23T07:03:00.464Z,28.58
2022-10-23T07:08:04.428Z,35.40
2022-10-23T07:13:05.907Z,13.38
2022-10-23T07:18:14.202Z,60.13
2022-10-23T07:23:16.298Z,38.88
2022-10-23T07:28:17.726Z,21.77
2022-10-23T07:33:19.132Z,16.40
2022-10-23T07:38:20.654Z,20.88
2022-10-23T07:43:22.186Z,31.70
2022-10-23T07:48:24.651Z,19.50
2022-10-23T07:53:26.562Z,61.30
2022-10-23T07:58:29.401Z,34.50
2022-10-23T08:03:34.873Z,42.53
2022-10-23T08:08:36.736Z,55.30
2022-10-23T08:13:38.191Z,29.65
2022-10-23T08:18:41.306Z,34.63
2022-10-23T08:23:43.635Z,21.75
2022-10-23T08:28:45.106Z,22.67
2022-10-23T08:38:57.966Z,42.42
2022-10-23T08:44:09.785Z,22.45
2022-10-23T08:49:42.171Z,29.52
2022-10-23T08:54:56.992Z,34.22
2022-10-23T09:00:03.335Z,20.30
2022-10-23T09:05:13.631Z,19.55
2022-10-23T09:10:31.085Z,22.08
2022-10-23T09:15:42.221Z,19.98
2022-10-23T09:20:46.180Z,18.92
2022-10-23T09:25:50.870Z,19.38
2022-10-23T09:30:53.187Z,16.98
2022-10-23T09:36:06.782Z,19.52
2022-10-23T09:41:17.921Z,18.80
2022-10-23T09:46:19.397Z,22.65
2022-10-23T09:51:21.634Z,22.55
2022-10-23T09:56:24.693Z,22.23
2022-10-23T10:01:32.683Z,33.80
2022-10-23T10:06:34.292Z,26.30
2022-10-23T10:11:51.648Z,26.50
2022-10-23T10:17:05.460Z,25.15
2022-10-23T10:22:28.683Z,28.83
2022-10-23T10:27:46.340Z,32.87
2022-10-23T10:33:00.092Z,34.97
2022-10-23T10:38:09.767Z,29.45
2022-10-23T10:43:26.090Z,27.42
2022-10-23T10:48:51.996Z,24.27
2022-10-23T10:54:27.431Z,28.90
2022-10-23T10:59:38.154Z,24.77
2022-10-23T11:04:45.682Z,24.85
2022-10-23T11:09:47.729Z,19.60
2022-10-23T11:14:50.302Z,22.73
2022-10-23T11:20:39.978Z,21.38
2022-10-23T11:26:06.428Z,27.73
2022-10-23T11:31:12.283Z,25.85
2022-10-23T11:36:39.141Z,25.27
2022-10-23T11:41:49.232Z,26.42
2022-10-23T11:47:05.467Z,27.33
2022-10-23T11:52:23.240Z,23.20
2022-10-23T11:57:24.783Z,19.88
2022-10-23T12:02:42.978Z,16.50
2022-10-23T12:07:46.656Z,19.13
2022-10-23T12:13:00.106Z,17.23
2022-10-23T12:18:15.353Z,16.17
2022-10-23T12:23:53.699Z,13.48
2022-10-23T12:29:19.566Z,12.35
2022-10-23T12:34:50.852Z,14.30
2022-10-23T12:39:55.128Z,14.45
2022-10-23T12:45:18.167Z,14.40
2022-10-23T12:50:25.769Z,11.40
2022-10-23T12:55:47.777Z,12.60
2022-10-23T13:00:55.415Z,16.73
2022-10-23T13:05:58.779Z,13.70
2022-10-23T13:11:00.885Z,14.60
2022-10-23T13:16:14.028Z,11.38
2022-10-23T13:21:23.066Z,11.03
2022-10-23T13:26:45.351Z,13.85
2022-10-23T13:31:47.428Z,14.70
2022-10-23T13:36:56.187Z,13.65
2022-10-23T13:42:09.919Z,13.35
2022-10-23T13:47:13.103Z,11.40
2022-10-23T13:52:20.015Z,14.20
2022-10-23T13:57:21.552Z,15.55
2022-10-23T14:02:24.327Z,11.65
2022-10-23T14:07:25.813Z,16.10
2022-10-23T14:12:39.169Z,12.70
2022-10-23T14:17:40.598Z,10.25
2022-10-23T14:22:42.377Z,13.43
2022-10-23T14:27:44.226Z,10.40
2022-10-23T14:32:47.119Z,12.40
2022-10-23T14:37:48.885Z,15.20
2022-10-23T14:42:50.327Z,12.50
2022-10-23T14:47:51.805Z,13.38
2022-10-23T14:52:53.338Z,16.77
2022-10-23T14:57:55.984Z,15.13
2022-10-23T15:02:57.400Z,12.95
2022-10-23T15:07:58.988Z,11.38
2022-10-23T15:13:00.436Z,11.32
2022-10-23T15:18:01.871Z,10.85
2022-10-23T15:23:03.782Z,14.07
2022-10-23T15:28:05.181Z,13.10
2022-10-23T15:33:06.686Z,14.52
2022-10-23T15:38:08.149Z,12.38
2022-10-23T15:43:13.046Z,19.33
2022-10-23T15:48:14.958Z,33.33
2022-10-23T15:53:16.405Z,19.90
2022-10-23T15:58:17.839Z,16.75
2022-10-23T16:03:19.307Z,33.78
2022-10-23T16:08:20.813Z,14.85
2022-10-23T16:13:22.257Z,12.18
2022-10-23T16:18:23.919Z,12.40
2022-10-23T16:23:28.083Z,13.23
2022-10-23T16:28:29.587Z,12.23
2022-10-23T16:33:31.001Z,12.10
2022-10-23T16:38:32.636Z,11.00
2022-10-23T16:43:34.089Z,11.57
2022-10-23T16:48:36.317Z,12.25
2022-10-23T16:53:38.021Z,7.68
2022-10-23T16:58:42.315Z,10.38
2022-10-23T17:08:49.957Z,12.68
2022-10-23T17:13:58.478Z,9.27
2022-10-23T17:19:01.782Z,9.75
2022-10-23T17:24:03.832Z,12.75
2022-10-23T17:29:07.298Z,6.97
2022-10-23T17:34:11.638Z,10.30
2022-10-23T17:44:15.704Z,10.38
2022-10-23T17:49:17.282Z,11.93
2022-10-23T17:54:18.884Z,8.93
2022-10-23T17:59:21.869Z,10.90
2022-10-23T18:04:23.427Z,7.70
2022-10-23T18:09:25.060Z,8.18
2022-10-23T18:14:29.441Z,9.38
2022-10-23T18:19:31.222Z,10.07
2022-10-23T18:24:32.903Z,10.02
2022-10-23T18:29:34.539Z,10.73
2022-10-23T18:34:36.258Z,16.13
2022-10-23T18:39:38.878Z,11.32
2022-10-23T18:44:41.757Z,10.10
2022-10-23T18:49:44.408Z,10.90
2022-10-23T18:54:45.850Z,15.20
2022-10-23T18:59:47.399Z,8.95
2022-10-23T19:04:49.073Z,9.02
2022-10-23T19:09:51.015Z,9.50
2022-10-23T19:14:54.805Z,11.20
2022-10-23T19:20:07.184Z,8.30
2022-10-23T19:25:19.470Z,12.73
2022-10-23T19:30:22.804Z,7.85
2022-10-23T19:35:24.519Z,8.47
2022-10-23T19:40:25.979Z,4.95
2022-10-23T19:45:27.483Z,8.10
2022-10-23T19:50:29.051Z,7.70
2022-10-23T19:55:30.502Z,7.35
2022-10-23T20:00:31.967Z,8.05
2022-10-23T20:05:33.405Z,6.57
2022-10-23T20:10:40.715Z,8.15
2022-10-23T20:15:42.160Z,12.40
2022-10-23T20:20:43.661Z,14.82
2022-10-23T20:25:45.121Z,6.68
2022-10-23T20:30:46.597Z,9.93
2022-10-23T20:35:48.129Z,7.80
2022-10-23T20:40:49.624Z,6.50
2022-10-23T20:45:51.072Z,5.00
2022-10-23T20:50:52.504Z,8.43
2022-10-23T20:55:53.931Z,7.78
2022-10-23T21:00:57.243Z,6.72
2022-10-23T21:06:07.220Z,5.93
2022-10-23T21:11:13.775Z,8.68
2022-10-23T21:16:28.674Z,10.60
2022-10-23T21:21:33.665Z,5.82
2022-10-23T21:26:35.528Z,8.30
2022-10-23T21:31:37.149Z,6.20
2022-10-23T21:36:53.850Z,6.85
2022-10-23T21:42:00.020Z,7.18
2022-10-23T21:47:01.429Z,8.00
2022-10-23T21:52:04.030Z,5.32
2022-10-23T21:57:12.104Z,4.32
2022-10-23T22:02:13.643Z,7.47
2022-10-23T22:07:15.309Z,4.20
2022-10-23T22:12:16.808Z,5.10
2022-10-23T22:17:18.265Z,7.28
2022-10-23T22:22:19.686Z,4.05
2022-10-23T22:27:21.093Z,8.98
2022-10-23T22:32:22.518Z,3.80
2022-10-23T22:37:24.025Z,5.72
2022-10-23T22:42:25.536Z,8.82
2022-10-23T22:47:29.241Z,9.20
2022-10-23T22:52:30.730Z,6.68
2022-10-23T22:57:32.182Z,6.18
2022-10-23T23:02:33.632Z,3.80
2022-10-23T23:07:35.042Z,4.63
2022-10-23T23:12:37.832Z,5.70
2022-10-23T23:17:39.240Z,5.63
2022-10-23T23:22:40.685Z,4.90
2022-10-23T23:27:42.276Z,4.75
2022-10-23T23:32:47.077Z,4.53
2022-10-23T23:37:48.670Z,8.38
2022-10-23T23:42:50.152Z,10.20
2022-10-23T23:47:51.643Z,4.68
2022-10-23T23:52:53.185Z,11.82
2022-10-23T23:57:54.924Z,5.28
